createdAt,value
2023-05-16T00:00:45.695Z,12.26
2023-05-16T00:01:48.858Z,12.33
2023-05-16T00:02:55.205Z,12.34
2023-05-16T00:07:51.019Z,12.26
2023-05-16T00:09:52.690Z,12.25
2023-05-16T00:27:37.015Z,12.09
2023-05-16T00:31:24.617Z,12.14
2023-05-16T00:32:28.621Z,12.10
2023-05-16T00:37:17.059Z,11.93
2023-05-16T00:38:22.654Z,11.92
2023-05-16T00:39:25.935Z,11.93
2023-05-16T00:40:29.376Z,11.93
2023-05-16T00:41:37.140Z,11.95
2023-05-16T00:42:45.209Z,11.93
2023-05-16T00:47:35.173Z,12.06
2023-05-16T00:52:39.278Z,12.16
2023-05-16T01:00:14.904Z,12.24
2023-05-16T01:01:23.473Z,12.20
2023-05-16T01:02:29.195Z,12.23
2023-05-16T01:07:16.367Z,12.12
2023-05-16T02:50:14.285Z,18.44
2023-05-16T02:51:16.315Z,18.76
2023-05-16T02:52:19.302Z,18.81
2023-05-16T02:53:21.407Z,18.92
2023-05-16T02:54:23.947Z,19.37
2023-05-16T02:55:26.459Z,18.98
2023-05-16T02:56:28.265Z,19.35
2023-05-16T02:57:30.143Z,20.06
2023-05-16T02:58:31.938Z,20.08
2023-05-16T02:59:34.110Z,19.90
2023-05-16T03:00:36.031Z,20.23
2023-05-16T03:01:37.896Z,20.76
2023-05-16T03:02:41.368Z,20.85
2023-05-16T03:03:45.785Z,21.02
2023-05-16T03:04:47.734Z,20.85
2023-05-16T03:05:50.212Z,21.39
2023-05-16T03:06:52.039Z,21.13
2023-05-16T03:07:53.889Z,22.10
2023-05-16T03:08:56.285Z,21.98
2023-05-16T03:09:58.099Z,22.37
2023-05-16T03:10:59.987Z,22.09
2023-05-16T03:12:01.887Z,22.21
2023-05-16T03:13:03.734Z,22.07
2023-05-16T03:14:08.439Z,21.16
2023-05-16T03:15:10.427Z,20.35
2023-05-16T03:16:12.543Z,20.02
2023-05-16T03:17:14.604Z,19.70
2023-05-16T03:18:16.528Z,19.54
2023-05-16T03:19:20.653Z,19.15
2023-05-16T03:20:22.783Z,19.03
2023-05-16T03:21:25.225Z,18.52
2023-05-16T03:22:27.326Z,18.37
2023-05-16T03:23:30.404Z,18.20
2023-05-16T03:24:33.587Z,18.07
2023-05-16T03:25:36.634Z,17.81
2023-05-16T03:26:38.632Z,17.50
2023-05-16T03:27:40.421Z,17.51
2023-05-16T03:28:42.298Z,17.40
2023-05-16T03:29:46.738Z,17.22
2023-05-16T03:30:48.879Z,17.15
2023-05-16T03:31:50.812Z,16.79
2023-05-16T03:32:52.973Z,16.88
2023-05-16T03:33:55.070Z,16.96
2023-05-16T03:34:56.949Z,16.85
2023-05-16T03:35:58.882Z,16.92
2023-05-16T03:37:01.392Z,16.92
2023-05-16T03:38:03.736Z,16.76
2023-05-16T03:39:10.845Z,16.76
2023-05-16T03:40:13.238Z,17.01
2023-05-16T03:41:15.870Z,17.79
2023-05-16T03:42:18.524Z,18.89
2023-05-16T03:43:20.589Z,19.56
2023-05-16T03:44:23.019Z,20.06
2023-05-16T03:45:25.168Z,20.57
2023-05-16T03:46:27.555Z,20.84
2023-05-16T03:47:32.048Z,20.86
2023-05-16T03:48:34.055Z,21.54
2023-05-16T03:49:37.134Z,22.40
2023-05-16T03:50:41.000Z,22.77
2023-05-16T03:51:43.182Z,23.06
2023-05-16T03:52:45.223Z,23.14
2023-05-16T03:53:47.178Z,23.54
2023-05-16T03:54:50.220Z,23.75
2023-05-16T03:55:52.167Z,23.94
2023-05-16T03:56:54.016Z,24.09
2023-05-16T03:57:56.144Z,24.78
2023-05-16T03:58:59.374Z,24.68
2023-05-16T04:00:01.387Z,24.64
2023-05-16T04:01:13.227Z,25.96
2023-05-16T04:02:16.351Z,25.65
2023-05-16T04:03:20.270Z,26.20
2023-05-16T04:04:23.261Z,25.97
2023-05-16T04:05:25.358Z,24.22
2023-05-16T04:06:27.485Z,25.88
2023-05-16T04:07:29.277Z,25.91
2023-05-16T04:08:31.848Z,26.41
2023-05-16T04:09:34.950Z,26.65
2023-05-16T04:10:36.772Z,26.39
2023-05-16T04:11:38.903Z,27.37
2023-05-16T04:12:40.857Z,27.39
2023-05-16T04:13:42.773Z,27.16
2023-05-16T04:14:45.071Z,27.39
2023-05-16T04:15:46.984Z,26.24
2023-05-16T04:16:49.062Z,25.65
2023-05-16T04:17:51.635Z,25.56
2023-05-16T04:18:54.174Z,26.80
2023-05-16T04:19:58.362Z,26.38
2023-05-16T04:21:00.442Z,26.45
2023-05-16T04:22:02.610Z,26.36
2023-05-16T04:23:07.190Z,26.26
2023-05-16T04:24:10.553Z,26.06
2023-05-16T04:25:14.489Z,26.92
2023-05-16T04:26:18.232Z,27.13
2023-05-16T04:27:20.357Z,27.26
2023-05-16T04:28:25.725Z,26.74
2023-05-16T04:29:29.659Z,27.40
2023-05-16T04:30:31.809Z,27.82
2023-05-16T04:31:34.248Z,26.97
2023-05-16T04:32:36.965Z,27.60
2023-05-16T04:33:39.176Z,27.50
2023-05-16T04:34:44.386Z,28.72
2023-05-16T04:35:46.686Z,28.24
2023-05-16T04:36:48.713Z,28.48
2023-05-16T04:37:51.366Z,28.52
2023-05-16T04:38:53.661Z,28.40
2023-05-16T04:39:56.013Z,28.92
2023-05-16T04:40:57.814Z,29.34
2023-05-16T04:41:59.825Z,29.13
2023-05-16T04:43:01.941Z,29.34
2023-05-16T04:44:07.027Z,29.48
2023-05-16T04:45:13.145Z,29.60
2023-05-16T04:46:17.931Z,29.34
2023-05-16T04:47:20.130Z,29.44
2023-05-16T04:48:24.109Z,29.17
2023-05-16T04:49:26.287Z,29.50
2023-05-16T04:53:02.307Z,29.69
2023-05-16T04:55:05.868Z,30.08
2023-05-16T04:56:11.250Z,29.11
2023-05-16T04:57:37.039Z,28.81
2023-05-16T04:58:42.795Z,28.69
2023-05-16T04:59:48.994Z,29.00
2023-05-16T05:01:04.054Z,28.33
2023-05-16T05:02:09.124Z,29.35
2023-05-16T05:03:12.582Z,28.67
2023-05-16T05:04:18.706Z,28.86
2023-05-16T05:05:23.482Z,29.36
2023-05-16T05:06:25.701Z,29.69
2023-05-16T05:07:29.561Z,29.18
2023-05-16T05:13:40.948Z,28.92
2023-05-16T05:14:52.912Z,29.17
2023-05-16T05:16:11.964Z,29.32
2023-05-16T05:17:19.528Z,29.76
2023-05-16T05:21:50.395Z,29.26
2023-05-16T05:22:56.752Z,29.02
2023-05-16T05:24:06.483Z,29.65
2023-05-16T05:25:20.289Z,30.23
2023-05-16T05:26:22.792Z,30.54
2023-05-16T05:27:31.359Z,31.33
2023-05-16T05:28:34.003Z,30.50
2023-05-16T05:29:37.343Z,31.13
2023-05-16T05:30:41.230Z,31.28
2023-05-16T05:31:44.950Z,31.68
2023-05-16T05:32:47.059Z,31.13
2023-05-16T05:33:49.316Z,31.46
2023-05-16T05:34:51.968Z,31.19
2023-05-16T05:35:54.260Z,31.23
2023-05-16T05:36:56.849Z,30.84
2023-05-16T05:37:58.713Z,30.85
2023-05-16T05:39:00.716Z,31.53
2023-05-16T05:40:03.250Z,31.87
2023-05-16T05:41:07.528Z,31.27
2023-05-16T05:42:09.508Z,30.41
2023-05-16T05:43:11.448Z,31.54
2023-05-16T05:44:14.058Z,31.62
2023-05-16T05:45:16.740Z,31.03
2023-05-16T05:46:18.767Z,31.26
2023-05-16T05:47:21.749Z,31.08
2023-05-16T05:48:23.968Z,31.18
2023-05-16T05:49:29.309Z,31.47
2023-05-16T05:50:32.436Z,31.48
2023-05-16T05:51:37.450Z,32.32
2023-05-16T05:52:40.398Z,31.82
2023-05-16T05:53:42.683Z,32.05
2023-05-16T05:54:44.848Z,30.99
2023-05-16T05:55:47.130Z,31.14
2023-05-16T05:56:49.188Z,31.32
2023-05-16T05:57:51.202Z,30.63
2023-05-16T05:58:57.009Z,32.03
2023-05-16T05:59:59.270Z,31.22
2023-05-16T06:01:03.175Z,31.72
2023-05-16T06:02:05.895Z,31.20
2023-05-16T06:03:07.893Z,30.86
2023-05-16T06:04:10.592Z,30.93
2023-05-16T06:05:12.822Z,32.08
2023-05-16T06:06:15.728Z,32.51
2023-05-16T06:07:18.509Z,32.31
2023-05-16T06:08:20.547Z,31.66
2023-05-16T06:09:23.568Z,31.62
2023-05-16T06:10:26.213Z,31.98
2023-05-16T06:11:28.444Z,32.44
2023-05-16T06:12:32.481Z,32.14
2023-05-16T06:13:34.696Z,32.28
2023-05-16T06:14:41.073Z,31.71
2023-05-16T06:15:48.576Z,32.40
2023-05-16T06:16:51.789Z,31.84
2023-05-16T06:17:55.441Z,32.07
2023-05-16T06:18:57.858Z,31.34
2023-05-16T06:20:02.274Z,31.54
2023-05-16T06:21:51.492Z,32.01
2023-05-16T06:22:56.946Z,31.75
2023-05-16T06:25:17.854Z,31.24
2023-05-16T06:26:20.496Z,31.33
2023-05-16T06:27:27.622Z,31.51
2023-05-16T06:31:12.607Z,31.24
2023-05-16T06:32:24.049Z,31.58
2023-05-16T06:33:26.502Z,31.67
2023-05-16T06:34:56.198Z,31.49
2023-05-16T06:36:15.254Z,32.49
2023-05-16T06:37:18.404Z,32.06
2023-05-16T06:38:20.261Z,31.50
2023-05-16T06:39:22.518Z,31.26
2023-05-16T06:40:25.909Z,29.81
2023-05-16T06:41:28.069Z,29.17
2023-05-16T06:42:30.540Z,29.75
2023-05-16T06:43:32.840Z,30.63
2023-05-16T06:44:36.221Z,30.87
2023-05-16T06:45:41.134Z,30.76
2023-05-16T06:46:43.330Z,31.31
2023-05-16T06:47:45.459Z,30.13
2023-05-16T06:48:47.788Z,29.99
2023-05-16T06:50:06.947Z,29.59
2023-05-16T06:51:10.017Z,31.15
2023-05-16T06:52:13.523Z,30.73
2023-05-16T06:53:21.675Z,31.58
2023-05-16T06:54:25.118Z,32.56
2023-05-16T06:57:58.193Z,30.94
2023-05-16T07:00:11.655Z,29.18
2023-05-16T07:03:22.814Z,31.33
2023-05-16T07:05:27.506Z,30.93
2023-05-16T07:06:26.323Z,29.71
2023-05-16T07:07:28.453Z,29.62
2023-05-16T07:08:30.451Z,30.26
2023-05-16T07:09:38.356Z,31.35
2023-05-16T07:10:49.959Z,30.77
2023-05-16T07:11:52.283Z,30.24
2023-05-16T07:12:54.755Z,30.34
2023-05-16T07:14:00.577Z,30.61
2023-05-16T07:15:03.754Z,30.82
2023-05-16T07:16:08.717Z,29.88
2023-05-16T07:17:11.829Z,29.87
2023-05-16T07:18:14.834Z,29.84
2023-05-16T07:19:43.707Z,28.96
2023-05-16T07:20:54.111Z,29.21
2023-05-16T07:21:58.575Z,29.99
2023-05-16T07:23:04.422Z,29.25
2023-05-16T07:24:07.999Z,28.09
2023-05-16T07:25:14.585Z,29.21
2023-05-16T07:26:17.137Z,29.04
2023-05-16T07:27:20.417Z,29.75
2023-05-16T07:28:23.805Z,29.70
2023-05-16T07:29:26.117Z,30.09
2023-05-16T07:30:29.748Z,30.42
2023-05-16T07:31:31.936Z,29.41
2023-05-16T07:32:34.090Z,29.90
2023-05-16T07:33:36.384Z,29.92
2023-05-16T07:34:42.395Z,30.30
2023-05-16T07:35:44.808Z,31.04
2023-05-16T07:36:47.109Z,31.03
2023-05-16T07:37:49.449Z,31.07
2023-05-16T07:38:51.661Z,29.64
2023-05-16T07:39:53.923Z,30.88
2023-05-16T07:40:56.275Z,29.67
2023-05-16T07:41:58.452Z,30.10
2023-05-16T07:43:03.329Z,29.94
2023-05-16T07:44:06.128Z,30.85
2023-05-16T07:45:09.774Z,31.32
2023-05-16T07:46:12.257Z,29.92
2023-05-16T07:47:17.966Z,31.76
2023-05-16T07:48:20.197Z,31.88
2023-05-16T07:49:25.314Z,32.61
2023-05-16T07:50:31.769Z,32.30
2023-05-16T07:51:34.146Z,30.58
2023-05-16T07:52:36.556Z,30.39
2023-05-16T07:53:39.051Z,29.84
2023-05-16T07:54:47.105Z,30.02
2023-05-16T07:55:52.092Z,30.28
2023-05-16T07:56:55.403Z,29.90
2023-05-16T07:57:57.572Z,29.20
2023-05-16T07:58:59.884Z,30.04
2023-05-16T08:00:05.281Z,29.05
2023-05-16T08:01:17.793Z,28.25
2023-05-16T08:02:31.089Z,28.63
2023-05-16T08:03:33.392Z,27.85
2023-05-16T08:04:35.294Z,26.83
2023-05-16T08:05:38.058Z,27.41
2023-05-16T08:06:42.194Z,27.74
2023-05-16T08:07:44.070Z,27.26
2023-05-16T08:08:45.848Z,27.62
2023-05-16T08:09:50.819Z,28.00
2023-05-16T08:10:55.705Z,29.03
2023-05-16T08:11:59.903Z,29.05
2023-05-16T08:13:01.689Z,29.16
2023-05-16T08:14:03.908Z,28.72
2023-05-16T08:15:06.700Z,27.70
2023-05-16T08:16:09.060Z,27.23
2023-05-16T08:17:13.509Z,26.97
2023-05-16T08:18:16.421Z,27.19
2023-05-16T08:19:21.230Z,27.37
2023-05-16T08:20:23.610Z,27.30
2023-05-16T08:21:25.591Z,28.01
2023-05-16T08:22:38.362Z,27.84
2023-05-16T08:23:40.657Z,28.50
2023-05-16T08:24:42.527Z,28.39
2023-05-16T08:25:45.820Z,27.63
2023-05-16T08:26:47.776Z,28.36
2023-05-16T08:27:51.140Z,27.63
2023-05-16T08:29:00.917Z,27.21
2023-05-16T08:30:07.623Z,27.12
2023-05-16T08:31:20.076Z,27.51
2023-05-16T08:32:31.587Z,26.85
2023-05-16T08:33:37.373Z,26.74
2023-05-16T08:34:39.405Z,26.62
2023-05-16T08:35:58.762Z,26.36
2023-05-16T08:37:00.666Z,26.91
2023-05-16T08:38:03.392Z,26.57
2023-05-16T08:39:06.086Z,26.40
2023-05-16T08:40:10.876Z,26.99
2023-05-16T08:41:12.849Z,27.21
2023-05-16T08:42:15.093Z,27.61
2023-05-16T08:43:17.187Z,27.10
2023-05-16T08:44:22.039Z,26.51
2023-05-16T08:45:25.300Z,25.98
2023-05-16T08:46:29.128Z,26.04
2023-05-16T08:47:32.355Z,25.81
2023-05-16T08:48:35.019Z,26.00
2023-05-16T08:49:38.870Z,25.77
2023-05-16T08:50:42.963Z,25.69
2023-05-16T08:51:46.543Z,26.15
2023-05-16T08:52:52.640Z,26.25
2023-05-16T08:54:00.680Z,26.43
2023-05-16T08:55:10.701Z,26.45
2023-05-16T08:56:14.644Z,25.89
2023-05-16T08:57:17.285Z,25.82
2023-05-16T08:58:20.284Z,25.34
2023-05-16T08:59:22.368Z,25.24
2023-05-16T09:00:25.128Z,25.38
2023-05-16T09:01:27.122Z,25.46
2023-05-16T09:02:29.306Z,25.48
2023-05-16T09:03:31.545Z,25.71
2023-05-16T09:04:33.572Z,25.54
2023-05-16T09:05:35.971Z,25.22
2023-05-16T09:06:38.397Z,24.95
2023-05-16T09:07:41.937Z,24.99
2023-05-16T09:08:43.831Z,24.76
2023-05-16T09:09:47.007Z,25.09
2023-05-16T09:10:48.965Z,25.04
2023-05-16T09:11:50.950Z,25.55
2023-05-16T09:12:52.815Z,25.52
2023-05-16T09:13:54.841Z,25.57
2023-05-16T09:14:58.583Z,25.64
2023-05-16T09:16:17.600Z,25.98
2023-05-16T09:17:25.672Z,25.25
2023-05-16T09:18:34.140Z,25.52
2023-05-16T09:19:43.122Z,25.55
2023-05-16T09:20:50.234Z,25.35
2023-05-16T09:21:52.415Z,25.37
2023-05-16T09:22:57.451Z,24.50
2023-05-16T09:24:07.757Z,24.72
2023-05-16T09:25:28.511Z,24.72
2023-05-16T09:26:37.482Z,24.83
2023-05-16T09:27:41.239Z,24.49
2023-05-16T09:28:43.812Z,24.59
2023-05-16T09:29:51.072Z,23.95
2023-05-16T09:30:54.536Z,24.06
2023-05-16T09:32:05.879Z,23.96
2023-05-16T09:33:08.051Z,23.99
2023-05-16T09:34:12.682Z,23.98
2023-05-16T09:35:35.049Z,24.13
2023-05-16T09:36:44.465Z,23.85
2023-05-16T09:37:50.743Z,23.76
2023-05-16T09:38:53.422Z,23.83
2023-05-16T09:39:55.339Z,23.65
2023-05-16T09:40:57.781Z,23.68
2023-05-16T09:41:59.996Z,24.07
2023-05-16T09:43:06.380Z,24.14
2023-05-16T09:44:08.314Z,24.22
2023-05-16T09:45:14.226Z,23.70
2023-05-16T09:46:17.439Z,24.04
2023-05-16T09:47:20.641Z,24.14
2023-05-16T09:48:23.795Z,23.45
2023-05-16T09:49:26.368Z,23.31
2023-05-16T09:50:29.380Z,23.43
2023-05-16T09:51:32.236Z,23.33
2023-05-16T09:52:34.290Z,22.98
2023-05-16T09:53:38.844Z,22.93
2023-05-16T09:54:41.328Z,22.84
2023-05-16T09:55:43.808Z,22.67
2023-05-16T09:56:50.738Z,22.40
2023-05-16T09:57:52.765Z,22.08
2023-05-16T09:58:54.621Z,22.19
2023-05-16T10:00:01.630Z,22.21
2023-05-16T10:01:05.071Z,22.15
2023-05-16T10:02:08.037Z,22.29
2023-05-16T10:03:10.809Z,22.34
2023-05-16T10:04:16.216Z,22.34
2023-05-16T10:05:19.470Z,22.03
2023-05-16T10:06:22.935Z,21.90
2023-05-16T10:07:24.828Z,22.03
2023-05-16T10:08:27.315Z,22.10
2023-05-16T10:09:32.051Z,22.15
2023-05-16T10:10:36.721Z,22.05
2023-05-16T10:11:43.524Z,22.11
2023-05-16T10:12:45.957Z,22.23
2023-05-16T10:13:53.313Z,22.33
2023-05-16T10:14:56.584Z,22.40
2023-05-16T10:16:01.998Z,22.52
2023-05-16T10:17:06.644Z,22.44
2023-05-16T10:18:13.255Z,22.64
2023-05-16T10:19:17.614Z,22.72
2023-05-16T10:20:21.473Z,22.20
2023-05-16T10:21:24.675Z,22.14
2023-05-16T10:22:27.450Z,21.97
2023-05-16T10:23:30.996Z,22.01
2023-05-16T10:24:55.410Z,21.69
2023-05-16T10:25:58.445Z,21.41
2023-05-16T10:27:00.566Z,21.57
2023-05-16T10:28:03.013Z,21.85
2023-05-16T10:29:05.498Z,21.86
2023-05-16T10:30:09.973Z,22.11
2023-05-16T10:31:11.991Z,22.02
2023-05-16T10:32:14.895Z,22.02
2023-05-16T10:33:18.478Z,21.92
2023-05-16T10:34:20.962Z,21.98
2023-05-16T10:35:23.428Z,21.95
2023-05-16T10:36:25.633Z,21.77
2023-05-16T10:37:30.695Z,21.89
2023-05-16T10:38:34.835Z,22.05
2023-05-16T10:39:38.371Z,21.66
2023-05-16T10:40:41.570Z,21.71
2023-05-16T10:41:43.969Z,21.61
2023-05-16T10:42:59.972Z,21.55
2023-05-16T10:44:02.850Z,21.52
2023-05-16T10:45:19.754Z,21.58
2023-05-16T10:46:23.527Z,21.52
2023-05-16T10:47:25.604Z,21.49
2023-05-16T10:48:35.433Z,21.48
2023-05-16T10:49:41.179Z,21.48
2023-05-16T10:50:44.780Z,21.33
2023-05-16T10:52:04.259Z,21.32
2023-05-16T10:53:34.794Z,21.37
2023-05-16T10:54:41.705Z,21.42
2023-05-16T10:55:58.947Z,21.28
2023-05-16T10:57:19.924Z,21.29
2023-05-16T10:58:48.857Z,21.49
2023-05-16T10:59:52.161Z,21.28
2023-05-16T11:01:34.010Z,21.39
2023-05-16T11:02:41.706Z,21.18
2023-05-16T11:04:02.642Z,21.03
2023-05-16T11:05:06.864Z,21.13
2023-05-16T11:06:09.552Z,21.10
2023-05-16T11:07:11.598Z,21.14
2023-05-16T11:08:14.526Z,21.10
2023-05-16T11:09:22.405Z,21.18
2023-05-16T11:10:25.443Z,21.18
2023-05-16T11:11:49.138Z,21.22
2023-05-16T11:12:52.587Z,21.14
2023-05-16T11:13:55.626Z,21.11
2023-05-16T11:14:58.540Z,21.18
2023-05-16T11:16:39.350Z,21.14
2023-05-16T11:17:45.451Z,21.02
2023-05-16T11:18:51.909Z,21.10
2023-05-16T11:20:00.586Z,21.18
2023-05-16T11:21:06.797Z,20.99
2023-05-16T11:22:23.531Z,21.19
2023-05-16T11:23:26.323Z,21.07
2023-05-16T11:24:30.151Z,21.06
2023-05-16T11:25:41.284Z,21.04
2023-05-16T11:26:43.400Z,20.92
2023-05-16T11:27:47.494Z,20.99
2023-05-16T11:28:50.701Z,21.03
2023-05-16T11:29:54.433Z,21.03
2023-05-16T11:31:00.186Z,21.08
2023-05-16T11:32:05.134Z,20.95
2023-05-16T11:33:09.854Z,21.04
2023-05-16T11:34:11.955Z,21.08
2023-05-16T11:35:18.136Z,21.05
2023-05-16T11:36:20.390Z,21.13
2023-05-16T11:37:23.014Z,21.24
2023-05-16T11:38:25.397Z,21.23
2023-05-16T11:39:27.469Z,21.29
2023-05-16T11:40:29.651Z,21.34
2023-05-16T11:41:32.884Z,21.17
2023-05-16T11:42:36.618Z,21.04
2023-05-16T11:43:43.727Z,21.09
2023-05-16T11:44:45.908Z,21.03
2023-05-16T11:45:54.746Z,21.10
2023-05-16T11:46:56.983Z,20.92
2023-05-16T11:48:04.273Z,20.97
2023-05-16T11:49:07.374Z,20.99
2023-05-16T11:50:17.525Z,21.03
2023-05-16T11:51:21.785Z,21.12
2023-05-16T11:52:23.706Z,21.24
2023-05-16T11:53:25.610Z,21.22
2023-05-16T11:54:28.540Z,21.23
2023-05-16T11:56:36.998Z,21.23
2023-05-16T11:57:39.680Z,21.15
2023-05-16T11:58:42.696Z,21.12
2023-05-16T11:59:45.284Z,21.15
2023-05-16T12:00:50.134Z,21.17
2023-05-16T12:01:52.218Z,21.12
2023-05-16T12:02:55.579Z,21.12
2023-05-16T12:03:58.340Z,21.15
2023-05-16T12:05:00.828Z,21.18
2023-05-16T12:06:04.144Z,21.10
2023-05-16T12:07:06.092Z,21.07
2023-05-16T12:08:11.026Z,21.08
2023-05-16T12:09:15.519Z,21.00
2023-05-16T12:10:20.167Z,20.94
2023-05-16T12:11:23.969Z,21.01
2023-05-16T12:12:25.850Z,21.03
2023-05-16T12:13:28.201Z,21.05
2023-05-16T12:14:30.259Z,21.01
2023-05-16T12:15:33.626Z,21.16
2023-05-16T12:16:39.783Z,21.15
2023-05-16T12:17:42.424Z,21.17
2023-05-16T12:18:45.885Z,21.12
2023-05-16T12:19:48.306Z,21.19
2023-05-16T12:20:51.307Z,21.32
2023-05-16T12:21:54.594Z,21.35
2023-05-16T12:22:58.185Z,21.34
2023-05-16T12:24:01.033Z,21.43
2023-05-16T12:25:22.328Z,21.24
2023-05-16T12:26:31.146Z,21.23
2023-05-16T12:27:33.175Z,21.21
2023-05-16T12:28:37.617Z,21.27
2023-05-16T12:29:39.681Z,21.07
2023-05-16T12:30:44.241Z,21.03
2023-05-16T12:31:47.422Z,21.00
2023-05-16T12:33:09.404Z,21.07
2023-05-16T12:34:19.162Z,21.03
2023-05-16T12:35:21.657Z,21.08
2023-05-16T12:36:24.893Z,20.99
2023-05-16T12:37:26.843Z,21.06
2023-05-16T12:38:28.942Z,21.16
2023-05-16T12:39:37.811Z,21.17
2023-05-16T12:40:40.995Z,21.22
2023-05-16T12:41:45.764Z,21.24
2023-05-16T12:42:56.829Z,21.34
2023-05-16T12:44:17.112Z,21.38
2023-05-16T12:45:19.232Z,21.39
2023-05-16T12:46:21.621Z,21.34
2023-05-16T12:47:23.505Z,21.34
2023-05-16T12:48:34.522Z,21.27
2023-05-16T12:49:36.385Z,21.41
2023-05-16T12:50:41.899Z,21.41
2023-05-16T12:51:50.016Z,21.46
2023-05-16T12:52:54.024Z,21.48
2023-05-16T12:54:06.076Z,21.45
2023-05-16T12:55:13.789Z,21.41
2023-05-16T12:56:17.791Z,21.40
2023-05-16T12:57:20.130Z,21.38
2023-05-16T12:58:22.321Z,21.43
2023-05-16T12:59:24.210Z,21.39
2023-05-16T13:00:26.678Z,21.33
2023-05-16T13:01:29.077Z,21.22
2023-05-16T13:02:30.984Z,21.26
2023-05-16T13:03:36.153Z,21.28
2023-05-16T13:04:38.800Z,21.23
2023-05-16T13:05:41.110Z,21.06
2023-05-16T13:06:57.333Z,21.12
2023-05-16T13:08:01.422Z,21.07
2023-05-16T13:09:03.658Z,21.16
2023-05-16T13:10:07.042Z,21.14
2023-05-16T13:11:09.490Z,21.13
2023-05-16T13:12:11.626Z,21.23
2023-05-16T13:13:19.406Z,21.19
2023-05-16T13:14:31.047Z,21.15
2023-05-16T13:15:33.415Z,21.23
2023-05-16T13:16:35.828Z,21.18
2023-05-16T13:17:39.160Z,21.31
2023-05-16T13:18:41.050Z,21.29
2023-05-16T13:19:42.950Z,21.31
2023-05-16T13:20:44.980Z,21.30
2023-05-16T13:21:46.854Z,21.23
2023-05-16T13:22:49.032Z,21.23
2023-05-16T13:23:51.007Z,21.22
2023-05-16T13:24:53.088Z,21.36
2023-05-16T13:25:55.495Z,21.34
2023-05-16T13:26:58.157Z,21.43
2023-05-16T13:28:00.466Z,21.46
2023-05-16T13:29:02.395Z,21.54
2023-05-16T13:30:04.952Z,21.55
2023-05-16T13:31:12.608Z,21.49
2023-05-16T13:32:14.557Z,21.41
2023-05-16T13:33:16.504Z,21.34
2023-05-16T13:34:18.462Z,21.30
2023-05-16T13:35:20.422Z,21.33
2023-05-16T13:36:22.557Z,21.37
2023-05-16T13:37:24.580Z,21.29
2023-05-16T13:38:26.602Z,21.45
2023-05-16T13:39:28.459Z,21.27
2023-05-16T13:40:30.994Z,21.33
2023-05-16T13:41:37.741Z,21.32
2023-05-16T13:42:39.768Z,21.40
2023-05-16T13:43:41.618Z,21.25
2023-05-16T13:44:44.879Z,21.28
2023-05-16T13:45:46.905Z,21.33
2023-05-16T13:46:49.132Z,21.28
2023-05-16T13:47:50.981Z,21.30
2023-05-16T13:48:52.920Z,21.34
2023-05-16T13:49:54.809Z,21.37
2023-05-16T13:50:58.095Z,21.22
2023-05-16T13:52:01.578Z,21.30
2023-05-16T13:53:04.303Z,21.31
2023-05-16T13:54:06.123Z,21.37
2023-05-16T13:55:08.422Z,21.14
2023-05-16T13:56:11.126Z,21.16
2023-05-16T13:57:13.174Z,21.11
2023-05-16T13:58:15.041Z,21.16
2023-05-16T13:59:24.627Z,21.18
2023-05-16T14:00:45.206Z,21.24
2023-05-16T14:01:51.247Z,21.25
2023-05-16T14:02:53.212Z,21.25
2023-05-16T14:03:55.185Z,21.37
2023-05-16T14:04:58.047Z,21.42
2023-05-16T14:06:00.515Z,21.33
2023-05-16T14:07:02.416Z,21.39
2023-05-16T14:08:05.380Z,21.42
2023-05-16T14:09:08.160Z,21.45
2023-05-16T14:10:10.288Z,21.47
2023-05-16T14:11:12.452Z,21.36
2023-05-16T14:12:14.430Z,21.40
2023-05-16T14:13:16.423Z,21.39
2023-05-16T14:14:18.367Z,21.39
2023-05-16T14:15:21.390Z,21.43
2023-05-16T14:16:23.425Z,21.44
2023-05-16T14:17:25.382Z,21.30
2023-05-16T14:18:27.479Z,21.38
2023-05-16T14:19:32.508Z,21.38
2023-05-16T14:20:34.521Z,21.33
2023-05-16T14:21:36.678Z,21.35
2023-05-16T14:22:38.688Z,21.31
2023-05-16T14:23:40.794Z,21.22
2023-05-16T14:24:42.663Z,21.22
2023-05-16T14:25:44.424Z,21.30
2023-05-16T14:26:46.476Z,21.24
2023-05-16T14:27:51.029Z,21.33
2023-05-16T14:28:53.008Z,21.36
2023-05-16T14:29:55.844Z,21.39
2023-05-16T14:30:58.169Z,21.36
2023-05-16T14:32:00.523Z,21.26
2023-05-16T14:33:03.561Z,21.26
2023-05-16T14:34:05.865Z,21.27
2023-05-16T14:35:09.551Z,21.29
2023-05-16T14:36:11.576Z,21.26
2023-05-16T14:37:14.389Z,21.19
2023-05-16T14:38:16.802Z,21.25
2023-05-16T14:39:18.918Z,21.21
2023-05-16T14:40:21.905Z,21.24
2023-05-16T14:41:24.140Z,21.22
2023-05-16T14:42:26.042Z,21.21
2023-05-16T14:43:28.815Z,21.12
2023-05-16T14:44:30.664Z,21.05
2023-05-16T14:45:32.562Z,21.13
2023-05-16T14:46:34.672Z,21.00
2023-05-16T14:47:36.664Z,21.02
2023-05-16T14:48:38.684Z,21.10
2023-05-16T14:49:41.259Z,21.03
2023-05-16T14:50:43.321Z,20.97
2023-05-16T14:51:49.217Z,20.94
2023-05-16T14:52:51.256Z,20.97
2023-05-16T14:53:53.167Z,21.01
2023-05-16T14:54:55.223Z,21.05
2023-05-16T14:55:57.530Z,21.04
2023-05-16T14:57:00.260Z,21.07
2023-05-16T14:58:02.303Z,21.10
2023-05-16T14:59:04.208Z,21.09
2023-05-16T15:00:07.468Z,21.08
2023-05-16T15:01:09.792Z,21.10
2023-05-16T15:02:11.765Z,21.06
2023-05-16T15:03:15.853Z,21.04
2023-05-16T15:04:17.932Z,21.03
2023-05-16T15:05:20.065Z,20.97
2023-05-16T15:06:24.572Z,20.98
2023-05-16T15:07:26.480Z,20.91
2023-05-16T15:08:28.426Z,20.90
2023-05-16T15:09:30.221Z,20.90
2023-05-16T15:10:32.189Z,20.89
2023-05-16T15:11:35.363Z,20.88
2023-05-16T15:12:37.863Z,20.87
2023-05-16T15:13:39.766Z,20.87
2023-05-16T15:14:41.600Z,20.83
2023-05-16T15:15:43.659Z,20.84
2023-05-16T15:16:47.386Z,20.87
2023-05-16T15:17:49.551Z,20.94
2023-05-16T15:18:51.541Z,20.95
2023-05-16T15:19:54.371Z,20.97
2023-05-16T15:20:56.308Z,21.00
2023-05-16T15:21:58.314Z,21.01
2023-05-16T15:23:00.688Z,20.93
2023-05-16T15:24:02.568Z,20.90
2023-05-16T15:25:05.930Z,20.89
2023-05-16T15:26:07.795Z,20.92
2023-05-16T15:27:09.755Z,20.95
2023-05-16T15:28:11.561Z,21.02
2023-05-16T15:29:13.400Z,21.01
2023-05-16T15:30:15.561Z,21.03
2023-05-16T15:31:18.807Z,20.98
2023-05-16T15:32:23.144Z,21.12
2023-05-16T15:33:25.254Z,21.13
2023-05-16T15:34:28.627Z,21.10
2023-05-16T15:35:31.766Z,21.20
2023-05-16T15:36:33.721Z,21.27
2023-05-16T15:37:35.961Z,21.19
2023-05-16T15:38:38.014Z,21.07
2023-05-16T15:39:39.946Z,21.11
2023-05-16T15:40:41.730Z,21.07
2023-05-16T15:42:08.440Z,20.98
2023-05-16T15:43:05.928Z,20.98
2023-05-16T15:44:07.856Z,20.97
2023-05-16T15:45:11.605Z,20.95
2023-05-16T15:46:14.959Z,20.89
2023-05-16T15:47:18.043Z,20.77
2023-05-16T15:48:20.275Z,20.72
2023-05-16T15:49:23.193Z,20.76
2023-05-16T15:50:25.347Z,20.76
2023-05-16T15:51:27.519Z,20.68
2023-05-16T15:52:29.480Z,20.65
2023-05-16T15:53:31.327Z,20.61
2023-05-16T15:54:33.544Z,20.59
2023-05-16T15:55:35.543Z,20.59
2023-05-16T15:56:37.723Z,20.57
2023-05-16T15:57:40.562Z,20.51
2023-05-16T15:58:43.763Z,20.46
2023-05-16T15:59:47.003Z,20.48
2023-05-16T16:00:48.896Z,20.43
2023-05-16T16:01:52.264Z,20.42
2023-05-16T16:02:54.560Z,20.42
2023-05-16T16:03:56.618Z,20.33
2023-05-16T16:04:58.497Z,20.37
2023-05-16T16:06:00.432Z,20.31
2023-05-16T16:07:02.641Z,20.30
2023-05-16T16:08:04.931Z,20.26
2023-05-16T16:09:06.943Z,20.28
2023-05-16T16:10:09.417Z,20.27
2023-05-16T16:11:11.346Z,20.23
2023-05-16T16:12:14.501Z,20.20
2023-05-16T16:13:16.579Z,20.24
2023-05-16T16:14:18.535Z,20.23
2023-05-16T16:15:20.452Z,20.24
2023-05-16T16:16:23.698Z,20.27
2023-05-16T16:17:25.680Z,20.23
2023-05-16T16:18:28.341Z,20.22
2023-05-16T16:19:31.535Z,20.22
2023-05-16T16:20:33.436Z,20.24
2023-05-16T16:21:35.974Z,20.24
2023-05-16T16:22:38.312Z,20.19
2023-05-16T16:23:41.368Z,20.18
2023-05-16T16:24:43.153Z,20.19
2023-05-16T16:25:45.024Z,20.16
2023-05-16T16:26:47.961Z,20.13
2023-05-16T16:27:49.938Z,20.12
2023-05-16T16:28:51.848Z,20.09
2023-05-16T16:29:53.662Z,20.06
2023-05-16T16:30:55.776Z,20.00
2023-05-16T16:31:58.962Z,19.99
2023-05-16T16:33:01.030Z,19.99
2023-05-16T16:34:03.194Z,19.97
2023-05-16T16:35:05.733Z,19.94
2023-05-16T16:36:09.965Z,19.94
2023-05-16T16:37:12.234Z,19.94
2023-05-16T16:38:14.318Z,19.87
2023-05-16T16:39:17.421Z,19.85